Dades meteomassalio
Diari Summary for Diciembre 31, 2017 Units:  English    Metric   Both
« Previous Day
Next Day »
Diari Semanal Mensual Anual Personalitzat
  Maxima: Minima: Mijana:
Temperatura: TemperatureC °F 0.0 °F 6.4 °F
Rosada: DewpointC °F -1.3 °F 2.9 °F
Humitat: Humidity % 59 % 79 %
Velocitat del vent: WindSpeedKMH mph 0.0 mph 6.4 mph
Racha vent: WindSpeedGustKMH mph - -
Vent:- - WNW
Pressio: PressurehPa in 1021.6 in -
Pluja: 0.0 in    
Historical Graphs
 
 
Tabular Data for Diciembre 31, 2017
Time Temperature Dew Point Pressure Wind Wind Speed Wind Gust Humidity Rainfall Rate (Hourly) solar Conditions
TemperatureC °F DewpointC °F PressurehPa in Calm     Humidity % HourlyPrecipMM in SolarRadiationWatts/m^2 W/m2 Conditions
00:00 3.3 °F 1.2 °F 1028.3 in Calm     86 % 0.0 in 0.0 W/m2 CLR
00:05 3.3 °F 1.2 °F 1028.3 in Calm     86 % 0.0 in 0.0 W/m2 CLR
00:07 3.9 °F 1.8 °F 1028.3 in Calm     86 % 0.0 in 0.0 W/m2 CLR
00:10 3.9 °F 1.6 °F 1028.3 in Calm     85 % 0.0 in 0.0 W/m2 CLR
00:15 3.3 °F 1.1 °F 1028.0 in Calm     85 % 0.0 in 0.0 W/m2 CLR
00:19 3.3 °F 1.2 °F 1028.3 in Calm     86 % 0.0 in 0.0 W/m2 CLR
00:22 3.3 °F 1.2 °F 1028.0 in Calm     86 % 0.0 in 0.0 W/m2 CLR
00:24 3.3 °F 1.2 °F 1028.0 in Calm     86 % 0.0 in 0.0 W/m2 CLR
00:28 3.3 °F 1.2 °F 1028.0 in Calm     86 % 0.0 in 0.0 W/m2 CLR
00:29 3.3 °F 1.2 °F 1028.0 in Calm     86 % 0.0 in 0.0 W/m2 CLR
00:34 3.3 °F 1.2 °F 1028.0 in Calm     86 % 0.0 in 0.0 W/m2 CLR
00:37 3.3 °F 1.2 °F 1028.0 in Calm     86 % 0.0 in 0.0 W/m2 CLR
00:40 3.3 °F 1.2 °F 1028.0 in Calm     86 % 0.0 in 0.0 W/m2 CLR
00:45 3.3 °F 1.2 °F 1028.0 in Calm     86 % 0.0 in 0.0 W/m2 CLR
00:48 3.3 °F 1.4 °F 1028.0 in Calm     87 % 0.0 in 0.0 W/m2 CLR
00:51 2.8 °F 0.8 °F 1028.0 in Calm     87 % 0.0 in 0.0 W/m2 CLR
00:56 2.8 °F 0.8 °F 1028.0 in Calm     87 % 0.0 in 0.0 W/m2 CLR
00:58 2.8 °F 0.8 °F 1028.0 in Calm     87 % 0.0 in 0.0 W/m2 CLR
01:03 2.8 °F 1.0 °F 1028.0 in Calm     88 % 0.0 in 0.0 W/m2 CLR
01:08 2.8 °F 1.0 °F 1028.0 in Calm     88 % 0.0 in 0.0 W/m2 CLR
01:13 2.8 °F 1.0 °F 1028.0 in Calm     88 % 0.0 in 0.0 W/m2 CLR
01:15 2.8 °F 1.0 °F 1028.0 in Calm     88 % 0.0 in 0.0 W/m2 CLR
01:20 2.8 °F 1.0 °F 1028.0 in Calm     88 % 0.0 in 0.0 W/m2 CLR
01:25 2.8 °F 1.2 °F 1028.0 in Calm     89 % 0.0 in 0.0 W/m2 CLR
01:26 2.8 °F 1.2 °F 1028.0 in Calm     89 % 0.0 in 0.0 W/m2 CLR
01:31 2.8 °F 1.2 °F 1028.0 in Calm     89 % 0.0 in 0.0 W/m2 CLR
01:36 2.2 °F 0.6 °F 1028.0 in Calm     89 % 0.0 in 0.0 W/m2 CLR
01:37 2.2 °F 0.6 °F 1028.0 in Calm     89 % 0.0 in 0.0 W/m2 CLR
01:41 2.2 °F 0.6 °F 1028.0 in Calm     89 % 0.0 in 0.0 W/m2 CLR
01:45 2.2 °F 0.6 °F 1028.0 in Calm     89 % 0.0 in 0.0 W/m2 CLR
01:47 2.2 °F 0.6 °F 1028.0 in Calm     89 % 0.0 in 0.0 W/m2 CLR
01:52 2.2 °F 0.4 °F 1028.0 in Calm     88 % 0.0 in 0.0 W/m2 CLR
01:53 2.2 °F 0.4 °F 1028.0 in Calm     88 % 0.0 in 0.0 W/m2 CLR
01:58 2.2 °F 0.6 °F 1027.7 in Calm     89 % 0.0 in 0.0 W/m2 CLR
01:59 2.2 °F 0.6 °F 1028.0 in Calm     89 % 0.0 in 0.0 W/m2 CLR
02:04 2.2 °F 0.6 °F 1027.7 in Calm     89 % 0.0 in 0.0 W/m2 CLR
02:05 2.2 °F 0.6 °F 1027.7 in Calm     89 % 0.0 in 0.0 W/m2 CLR
02:07 1.7 °F 0.1 °F 1027.7 in Calm     89 % 0.0 in 0.0 W/m2 CLR
02:12 1.7 °F 0.1 °F 1027.7 in Calm     89 % 0.0 in 0.0 W/m2 CLR
02:16 2.2 °F 0.6 °F 1027.7 in Calm     89 % 0.0 in 0.0 W/m2 CLR
02:17 2.2 °F 0.6 °F 1027.7 in Calm     89 % 0.0 in 0.0 W/m2 CLR
02:22 2.2 °F 0.6 °F 1027.7 in Calm     89 % 0.0 in 0.0 W/m2 CLR
02:24 1.7 °F 0.1 °F 1027.7 in Calm     89 % 0.0 in 0.0 W/m2 CLR
02:28 1.7 °F 0.1 °F 1027.7 in Calm     89 % 0.0 in 0.0 W/m2 CLR
02:33 1.7 °F 0.2 °F 1027.7 in Calm     90 % 0.0 in 0.0 W/m2 CLR
02:36 1.7 °F 0.1 °F 1027.7 in Calm     89 % 0.0 in 0.0 W/m2 CLR
02:41 1.1 °F -0.5 °F 1027.3 in Calm     89 % 0.0 in 0.0 W/m2 CLR
02:42 1.7 °F 0.1 °F 1027.3 in Calm     89 % 0.0 in 0.0 W/m2 CLR
02:43 1.7 °F 0.1 °F 1027.7 in Calm     89 % 0.0 in 0.0 W/m2 CLR
02:48 1.1 °F -0.5 °F 1027.3 in Calm     89 % 0.0 in 0.0 W/m2 CLR
02:53 1.7 °F 0.2 °F 1027.3 in Calm     90 % 0.0 in 0.0 W/m2 CLR
02:58 1.7 °F 0.2 °F 1027.3 in Calm     90 % 0.0 in 0.0 W/m2 CLR
02:59 1.7 °F 0.2 °F 1027.3 in Calm     90 % 0.0 in 0.0 W/m2 CLR
03:00 1.7 °F 0.2 °F 1027.3 in Calm     90 % 0.0 in 0.0 W/m2 CLR
03:04 1.7 °F 0.2 °F 1027.3 in Calm     90 % 0.0 in 0.0 W/m2 CLR
03:08 1.7 °F 0.2 °F 1027.3 in Calm     90 % 0.0 in 0.0 W/m2 CLR
03:11 1.7 °F 0.2 °F 1027.3 in Calm     90 % 0.0 in 0.0 W/m2 CLR
03:15 1.7 °F 0.2 °F 1027.3 in Calm     90 % 0.0 in 0.0 W/m2 CLR
03:18 1.7 °F 0.2 °F 1027.3 in Calm     90 % 0.0 in 0.0 W/m2 CLR
03:20 1.7 °F 0.2 °F 1027.3 in Calm     90 % 0.0 in 0.0 W/m2 CLR
03:23 1.7 °F 0.2 °F 1027.3 in Calm     90 % 0.0 in 0.0 W/m2 CLR
03:27 1.7 °F 0.3 °F 1027.3 in Calm     91 % 0.0 in 0.0 W/m2 CLR
03:29 1.7 °F 0.3 °F 1027.3 in Calm     91 % 0.0 in 0.0 W/m2 CLR
03:33 1.7 °F 0.3 °F 1027.3 in Calm     91 % 0.0 in 0.0 W/m2 CLR
03:35 1.7 °F 0.3 °F 1027.3 in Calm     91 % 0.0 in 0.0 W/m2 CLR
03:39 1.7 °F 0.2 °F 1027.3 in Calm     90 % 0.0 in 0.0 W/m2 CLR
03:42 1.1 °F -0.3 °F 1027.3 in Calm     90 % 0.0 in 0.0 W/m2 CLR
03:47 1.1 °F -0.3 °F 1027.0 in Calm     90 % 0.0 in 0.0 W/m2 CLR
03:48 1.1 °F -0.3 °F 1027.0 in Calm     90 % 0.0 in 0.0 W/m2 CLR
03:53 1.1 °F -0.3 °F 1027.0 in Calm     90 % 0.0 in 0.0 W/m2 CLR
03:54 1.1 °F -0.3 °F 1027.0 in Calm     90 % 0.0 in 0.0 W/m2 CLR
03:59 1.1 °F -0.3 °F 1027.0 in Calm     90 % 0.0 in 0.0 W/m2 CLR
04:00 1.1 °F -0.3 °F 1027.0 in Calm     90 % 0.0 in 0.0 W/m2 CLR
04:05 1.1 °F -0.3 °F 1027.0 in Calm     90 % 0.0 in 0.0 W/m2 CLR
04:07 1.1 °F -0.3 °F 1027.0 in Calm     90 % 0.0 in 0.0 W/m2 CLR
04:11 1.1 °F -0.2 °F 1027.0 in Calm     91 % 0.0 in 0.0 W/m2 CLR
04:16 1.1 °F -0.3 °F 1027.0 in Calm     90 % 0.0 in 0.0 W/m2 CLR
04:20 1.1 °F -0.3 °F 1027.0 in Calm     90 % 0.0 in 0.0 W/m2 CLR
04:25 1.1 °F -0.3 °F 1027.0 in Calm     90 % 0.0 in 0.0 W/m2 CLR
04:29 1.1 °F -0.3 °F 1027.0 in Calm     90 % 0.0 in 0.0 W/m2 CLR
04:30 0.6 °F -0.9 °F 1027.0 in Calm     90 % 0.0 in 0.0 W/m2 CLR
04:35 0.6 °F -0.7 °F 1026.6 in Calm     91 % 0.0 in 0.0 W/m2 CLR
04:36 0.6 °F -0.7 °F 1026.6 in Calm     91 % 0.0 in 0.0 W/m2 CLR
04:41 1.1 °F -0.2 °F 1026.6 in Calm     91 % 0.0 in 0.0 W/m2 CLR
04:42 1.1 °F -0.2 °F 1026.6 in Calm     91 % 0.0 in 0.0 W/m2 CLR
04:47 0.6 °F -0.7 °F 1026.6 in Calm     91 % 0.0 in 0.0 W/m2 CLR
04:49 1.1 °F -0.2 °F 1026.6 in Calm     91 % 0.0 in 0.0 W/m2 CLR
04:50 1.1 °F -0.2 °F 1026.6 in Calm     91 % 0.0 in 0.0 W/m2 CLR
04:55 1.1 °F -0.2 °F 1026.6 in Calm     91 % 0.0 in 0.0 W/m2 CLR
05:00 1.1 °F -0.2 °F 1026.6 in Calm     91 % 0.0 in 0.0 W/m2 CLR
05:01 0.6 °F -0.7 °F 1026.6 in Calm     91 % 0.0 in 0.0 W/m2 CLR
05:06 0.6 °F -0.9 °F 1026.6 in Calm     90 % 0.0 in 0.0 W/m2 CLR
05:07 0.6 °F -0.9 °F 1026.6 in Calm     90 % 0.0 in 0.0 W/m2 CLR
05:12 0.6 °F -0.7 °F 1026.6 in Calm     91 % 0.0 in 0.0 W/m2 CLR
05:13 0.6 °F -0.7 °F 1026.6 in Calm     91 % 0.0 in 0.0 W/m2 CLR
05:16 0.0 °F -1.3 °F 1026.3 in Calm     91 % 0.0 in 0.0 W/m2 CLR
05:18 0.6 °F -0.7 °F 1026.3 in Calm     91 % 0.0 in 0.0 W/m2 CLR
05:23 0.6 °F -0.7 °F 1026.3 in Calm     91 % 0.0 in 0.0 W/m2 CLR
05:28 0.6 °F -0.7 °F 1026.3 in Calm     91 % 0.0 in 0.0 W/m2 CLR
05:31 0.6 °F -0.7 °F 1026.3 in Calm     91 % 0.0 in 0.0 W/m2 CLR
05:34 0.6 °F -0.7 °F 1026.3 in Calm     91 % 0.0 in 0.0 W/m2 CLR
05:36 0.6 °F -0.7 °F 1026.3 in Calm     91 % 0.0 in 0.0 W/m2 CLR
05:41 0.6 °F -0.7 °F 1026.3 in Calm     91 % 0.0 in 0.0 W/m2 CLR
05:44 0.6 °F -0.7 °F 1026.3 in Calm     91 % 0.0 in 0.0 W/m2 CLR
05:47 0.6 °F -0.7 °F 1026.3 in Calm     91 % 0.0 in 0.0 W/m2 CLR
05:50 0.6 °F -0.7 °F 1026.3 in Calm     91 % 0.0 in 0.0 W/m2 CLR
05:52 0.0 °F -1.3 °F 1026.3 in Calm     91 % 0.0 in 0.0 W/m2 CLR
05:55 0.6 °F -0.7 °F 1026.3 in Calm     91 % 0.0 in 0.0 W/m2 CLR
05:58 0.6 °F -0.7 °F 1026.3 in Calm     91 % 0.0 in 0.0 W/m2 CLR
06:02 0.0 °F -1.3 °F 1026.3 in Calm     91 % 0.0 in 0.0 W/m2 CLR
06:03 0.0 °F -1.3 °F 1026.3 in Calm     91 % 0.0 in 0.0 W/m2 CLR
06:08 0.0 °F -1.3 °F 1026.3 in Calm     91 % 0.0 in 0.0 W/m2 CLR
06:09 0.0 °F -1.3 °F 1026.3 in Calm     91 % 0.0 in 0.0 W/m2 CLR
06:10 0.0 °F -1.3 °F 1026.3 in Calm     91 % 0.0 in 0.0 W/m2 CLR
06:15 0.0 °F -1.3 °F 1026.0 in Calm     91 % 0.0 in 0.0 W/m2 CLR
06:16 0.0 °F -1.3 °F 1026.0 in Calm     91 % 0.0 in 0.0 W/m2 CLR
06:19 0.0 °F -1.3 °F 1026.0 in Calm     91 % 0.0 in 0.0 W/m2 CLR
06:21 0.0 °F -1.3 °F 1026.0 in Calm     91 % 0.0 in 0.0 W/m2 CLR
06:25 0.0 °F -1.2 °F 1026.0 in Calm     92 % 0.0 in 0.0 W/m2 CLR
06:26 0.0 °F -1.2 °F 1026.0 in Calm     92 % 0.0 in 0.0 W/m2 CLR
06:31 0.0 °F -1.3 °F 1026.0 in Calm     91 % 0.0 in 0.0 W/m2 CLR
06:32 0.0 °F -1.3 °F 1026.0 in Calm     91 % 0.0 in 0.0 W/m2 CLR
06:37 0.0 °F -1.2 °F 1025.6 in Calm     92 % 0.0 in 0.0 W/m2 CLR
06:42 0.0 °F -1.2 °F 1025.6 in Calm     92 % 0.0 in 0.0 W/m2 CLR
06:43 0.0 °F -1.2 °F 1025.6 in Calm     92 % 0.0 in 0.0 W/m2 CLR
06:48 0.0 °F -1.3 °F 1025.6 in Calm     91 % 0.0 in 0.0 W/m2 CLR
06:49 0.0 °F -1.3 °F 1025.6 in Calm     91 % 0.0 in 0.0 W/m2 CLR
06:54 0.0 °F -1.3 °F 1025.3 in Calm     91 % 0.0 in 0.0 W/m2 CLR
06:55 0.0 °F -1.3 °F 1025.3 in Calm     91 % 0.0 in 0.0 W/m2 CLR
06:56 0.0 °F -1.3 °F 1025.3 in Calm     91 % 0.0 in 0.0 W/m2 CLR
07:00 0.0 °F -1.3 °F 1025.3 in Calm     91 % 0.0 in 0.0 W/m2 CLR
07:02 0.0 °F -1.3 °F 1025.3 in Calm     91 % 0.0 in 0.0 W/m2 CLR
07:05 0.6 °F -0.7 °F 1025.3 in Calm     91 % 0.0 in 0.0 W/m2 CLR
07:07 0.6 °F -0.7 °F 1025.3 in Calm     91 % 0.0 in 0.0 W/m2 CLR
07:10 0.6 °F -0.7 °F 1025.3 in Calm     91 % 0.0 in 0.0 W/m2 CLR
07:15 0.0 °F -1.3 °F 1025.6 in Calm     91 % 0.0 in 0.0 W/m2 CLR
07:20 0.0 °F -1.3 °F 1025.3 in Calm     91 % 0.0 in 0.0 W/m2 CLR
07:21 0.6 °F -0.7 °F 1025.3 in Calm     91 % 0.0 in 0.0 W/m2 CLR
07:26 0.6 °F -0.7 °F 1025.3 in Calm     91 % 0.0 in 0.0 W/m2 CLR
07:28 0.6 °F -0.6 °F 1025.3 in Calm     92 % 0.0 in 0.0 W/m2 CLR
07:33 0.0 °F -1.2 °F 1024.9 in Calm     92 % 0.0 in 0.0 W/m2 CLR
07:34 0.0 °F -1.2 °F 1024.9 in Calm     92 % 0.0 in 0.0 W/m2 CLR
07:38 0.6 °F -0.6 °F 1024.9 in Calm     92 % 0.0 in 0.0 W/m2 CLR
07:44 0.6 °F -0.6 °F 1024.9 in Calm     92 % 0.0 in 0.0 W/m2 CLR
07:46 0.0 °F -1.2 °F 1024.9 in Calm     92 % 0.0 in 0.0 W/m2 CLR
07:50 0.0 °F -1.2 °F 1024.9 in Calm     92 % 0.0 in 0.0 W/m2 CLR
07:55 0.6 °F -0.6 °F 1024.9 in Calm     92 % 0.0 in 0.0 W/m2 CLR
08:00 0.6 °F -0.6 °F 1024.9 in Calm     92 % 0.0 in 0.0 W/m2 CLR
08:02 0.6 °F -0.6 °F 1024.9 in Calm     92 % 0.0 in 0.0 W/m2 CLR
08:06 0.6 °F -0.6 °F 1024.9 in Calm     92 % 0.0 in 0.0 W/m2 CLR
08:07 0.6 °F -0.7 °F 1024.9 in Calm     91 % 0.0 in 0.0 W/m2 CLR
08:12 0.6 °F -0.6 °F 1024.9 in Calm     92 % 0.0 in 5.0 W/m2 CLR
08:13 0.6 °F -0.6 °F 1024.9 in Calm     92 % 0.0 in 5.0 W/m2 CLR
08:18 0.6 °F -0.6 °F 1024.9 in Calm     92 % 0.0 in 5.0 W/m2 OVC
08:23 0.6 °F -0.6 °F 1024.9 in Calm     92 % 0.0 in 0.0 W/m2 OVC
08:28 0.6 °F -0.6 °F 1024.9 in Calm     92 % 0.0 in 0.0 W/m2 OVC
08:33 0.6 °F -0.6 °F 1024.9 in Calm     92 % 0.0 in 5.0 W/m2 OVC
08:34 0.6 °F -0.6 °F 1024.9 in Calm     92 % 0.0 in 5.0 W/m2 OVC
08:38 0.6 °F -0.6 °F 1025.3 in Calm     92 % 0.0 in 7.0 W/m2 OVC
08:39 0.6 °F -0.6 °F 1025.3 in Calm     92 % 0.0 in 7.0 W/m2 BKN
08:44 0.6 °F -0.6 °F 1025.3 in Calm     92 % 0.0 in 9.0 W/m2 BKN
08:49 0.6 °F -0.6 °F 1024.9 in Calm     92 % 0.0 in 16.0 W/m2 BKN
08:50 0.6 °F -0.6 °F 1024.9 in Calm     92 % 0.0 in 16.0 W/m2 BKN
08:55 0.6 °F -0.6 °F 1024.9 in Calm     92 % 0.0 in 25.0 W/m2 BKN
08:57 0.6 °F -0.6 °F 1024.9 in Calm     92 % 0.0 in 26.0 W/m2 BKN
09:01 0.6 °F -0.6 °F 1025.3 in Calm     92 % 0.0 in 33.0 W/m2 BKN
09:05 1.1 °F -0.1 °F 1025.3 in Calm     92 % 0.0 in 39.0 W/m2 BKN
09:10 1.1 °F -0.1 °F 1025.3 in Calm     92 % 0.0 in 42.0 W/m2 BKN
09:15 1.1 °F -0.1 °F 1025.3 in Calm     92 % 0.0 in 47.0 W/m2 SCT
09:20 1.1 °F -0.1 °F 1025.3 in Calm     92 % 0.0 in 54.0 W/m2 SCT
09:22 1.1 °F -0.1 °F 1025.3 in Calm     92 % 0.0 in 56.0 W/m2 SCT
09:27 1.1 °F -0.1 °F 1025.6 in Calm     92 % 0.0 in 62.0 W/m2 SCT
09:28 1.1 °F -0.1 °F 1025.6 in Calm     92 % 0.0 in 65.0 W/m2 SCT
09:30 1.1 °F -0.1 °F 1025.6 in Calm     92 % 0.0 in 67.0 W/m2 SCT
09:35 1.1 °F -0.1 °F 1026.0 in Calm     92 % 0.0 in 70.0 W/m2 SCT
09:38 1.7 °F 0.5 °F 1026.0 in Calm     92 % 0.0 in 76.0 W/m2 FEW
09:42 1.7 °F 0.5 °F 1026.0 in Calm     92 % 0.0 in 95.0 W/m2 FEW
09:44 1.7 °F 0.5 °F 1026.0 in Calm     92 % 0.0 in 91.0 W/m2 FEW
09:48 1.7 °F 0.5 °F 1026.0 in Calm     92 % 0.0 in 95.0 W/m2 CLR
09:52 1.7 °F 0.5 °F 1026.0 in Calm     92 % 0.0 in 93.0 W/m2 CLR
09:57 2.2 °F 1.1 °F 1026.0 in Calm     92 % 0.0 in 88.0 W/m2 CLR
09:58 2.2 °F 1.1 °F 1026.0 in Calm     92 % 0.0 in 95.0 W/m2 CLR
10:03 2.2 °F 1.1 °F 1026.0 in Calm     92 % 0.0 in 109.0 W/m2 CLR
10:04 2.2 °F 1.1 °F 1026.0 in Calm     92 % 0.0 in 116.0 W/m2 CLR
10:09 2.8 °F 1.6 °F 1026.0 in Calm     92 % 0.0 in 121.0 W/m2 CLR
10:14 2.8 °F 1.6 °F 1026.0 in Calm     92 % 0.0 in 128.0 W/m2 CLR
10:19 3.3 °F 2.2 °F 1026.0 in Calm     92 % 0.0 in 121.0 W/m2 CLR
10:24 3.3 °F 2.2 °F 1026.0 in Calm     92 % 0.0 in 120.0 W/m2 CLR
10:26 3.3 °F 2.2 °F 1026.0 in Calm     92 % 0.0 in 128.0 W/m2 CLR
10:27 3.3 °F 2.2 °F 1026.3 in Calm     92 % 0.0 in 135.0 W/m2 CLR
10:31 3.9 °F 2.7 °F 1026.3 in Calm     92 % 0.0 in 239.0 W/m2 CLR
10:36 3.9 °F 2.7 °F 1026.3 in Calm     92 % 0.0 in 297.0 W/m2 CLR
10:38 3.9 °F 2.7 °F 1026.3 in Calm     92 % 0.0 in 367.0 W/m2 CLR
10:43 4.4 °F 3.3 °F 1026.3 in Calm     92 % 0.0 in 292.0 W/m2 CLR
10:45 4.4 °F 3.3 °F 1026.3 in Calm     92 % 0.0 in 341.0 W/m2 CLR
10:48 5.0 °F 3.8 °F 1026.3 in Calm     92 % 0.0 in 227.0 W/m2 CLR
10:52 5.0 °F 3.8 °F 1026.0 in Calm     92 % 0.0 in 169.0 W/m2 CLR
10:57 5.6 °F 4.2 °F 1026.3 in Calm     91 % 0.0 in 149.0 W/m2 CLR
11:02 5.6 °F 4.1 °F 1026.3 in Calm     90 % 0.0 in 190.0 W/m2 CLR
11:07 6.1 °F 4.6 °F 1026.3 in Calm     90 % 0.0 in 186.0 W/m2 CLR
11:08 6.1 °F 4.6 °F 1026.3 in Calm     90 % 0.0 in 190.0 W/m2 CLR
11:14 6.1 °F 4.6 °F 1026.0 in Calm     90 % 0.0 in 200.0 W/m2 CLR
11:15 6.7 °F 5.0 °F 1026.0 in Calm     89 % 0.0 in 202.0 W/m2 CLR
11:18 6.7 °F 5.0 °F 1026.0 in Calm     89 % 0.0 in 206.0 W/m2 CLR
11:21 6.7 °F 4.8 °F 1026.0 in Calm     88 % 0.0 in 209.0 W/m2 CLR
11:23 7.2 °F 5.4 °F 1026.0 in Calm     88 % 0.0 in 211.0 W/m2 CLR
11:27 7.8 °F 5.9 °F 1026.0 in Calm     88 % 0.0 in 236.0 W/m2 CLR
11:32 7.8 °F 5.7 °F 1025.6 in Calm     87 % 0.0 in 253.0 W/m2 CLR
11:33 7.8 °F 5.7 °F 1025.6 in Calm     87 % 0.0 in 253.0 W/m2 CLR
11:38 8.3 °F 6.1 °F 1026.0 in Calm     86 % 0.0 in 234.0 W/m2 CLR
11:39 8.3 °F 6.1 °F 1025.6 in Calm     86 % 0.0 in 227.0 W/m2 CLR
11:43 8.3 °F 6.1 °F 1025.6 in Calm     86 % 0.0 in 214.0 W/m2 CLR
11:48 8.3 °F 5.9 °F 1025.6 in Calm     85 % 0.0 in 195.0 W/m2 CLR
11:49 8.9 °F 6.5 °F 1025.6 in Calm     85 % 0.0 in 195.0 W/m2 CLR
11:54 8.9 °F 6.3 °F 1025.3 in Calm     84 % 0.0 in 211.0 W/m2 CLR
11:57 8.9 °F 6.2 °F 1025.3 in Calm     83 % 0.0 in 216.0 W/m2 CLR
12:01 9.4 °F 6.5 °F 1024.9 in Calm     82 % 0.0 in 206.0 W/m2 CLR
12:06 9.4 °F 6.5 °F 1024.9 in Calm     82 % 0.0 in 206.0 W/m2 CLR
12:07 10.0 °F 7.1 °F 1024.9 in Calm     82 % 0.0 in 200.0 W/m2 CLR
12:08 10.0 °F 7.1 °F 1024.9 in Calm     82 % 0.0 in 200.0 W/m2 CLR
12:13 10.0 °F 6.9 °F 1024.9 in Calm     81 % 0.0 in 193.0 W/m2 CLR
12:14 10.6 °F 7.4 °F 1024.9 in Calm     81 % 0.0 in 199.0 W/m2 CLR
12:19 10.6 °F 7.2 °F 1024.9 in Calm     80 % 0.0 in 234.0 W/m2 CLR
12:20 10.6 °F 7.2 °F 1024.6 in Calm     80 % 0.0 in 239.0 W/m2 CLR
12:25 11.1 °F 7.6 °F 1024.6 in Calm     79 % 0.0 in 272.0 W/m2 CLR
12:28 11.1 °F 7.6 °F 1024.3 in Calm     79 % 0.0 in 323.0 W/m2 CLR
12:32 11.1 °F 7.4 °F 1024.3 in Calm     78 % 0.0 in 309.0 W/m2 CLR
12:35 11.7 °F 7.9 °F 1024.3 in Calm     78 % 0.0 in 246.0 W/m2 CLR
12:40 11.7 °F 7.8 °F 1024.3 in Calm     77 % 0.0 in 550.0 W/m2 CLR
12:41 11.7 °F 7.8 °F 1024.3 in Calm     77 % 0.0 in 550.0 W/m2 CLR
12:43 11.7 °F 7.8 °F 1024.3 in Calm     77 % 0.0 in 550.0 W/m2 CLR
12:48 11.7 °F 7.4 °F 1023.9 in Calm     75 % 0.0 in 299.0 W/m2 CLR
12:53 12.2 °F 7.7 °F 1023.6 in Calm     74 % 0.0 in 281.0 W/m2 CLR
12:54 12.2 °F 7.7 °F 1023.6 in Calm     74 % 0.0 in 281.0 W/m2 CLR
12:59 12.8 °F 8.1 °F 1023.6 in Calm     73 % 0.0 in 283.0 W/m2 CLR
13:03 12.8 °F 8.1 °F 1023.6 in Calm     73 % 0.0 in 274.0 W/m2 CLR
13:05 12.8 °F 8.1 °F 1023.6 in Calm     73 % 0.0 in 258.0 W/m2 CLR
13:10 12.8 °F 7.8 °F 1023.6 in Calm     72 % 0.0 in 246.0 W/m2 CLR
13:11 12.8 °F 7.7 °F 1023.6 in Calm     71 % 0.0 in 246.0 W/m2 CLR
13:12 12.8 °F 7.7 °F 1023.6 in Calm     71 % 0.0 in 271.0 W/m2 CLR
13:17 12.8 °F 7.7 °F 1023.2 in Calm     71 % 0.0 in 214.0 W/m2 CLR
13:21 13.3 °F 8.2 °F 1023.2 in Calm     71 % 0.0 in 230.0 W/m2 CLR
13:22 13.3 °F 8.0 °F 1023.2 in Calm     70 % 0.0 in 223.0 W/m2 CLR
13:27 13.3 °F 8.0 °F 1023.2 in Calm     70 % 0.0 in 197.0 W/m2 CLR
13:32 12.8 °F 7.2 °F 1022.9 in Calm     69 % 0.0 in 207.0 W/m2 CLR
13:35 13.3 °F 7.6 °F 1022.9 in Calm     68 % 0.0 in 227.0 W/m2 CLR
13:39 13.3 °F 7.6 °F 1022.9 in Calm     68 % 0.0 in 236.0 W/m2 CLR
13:41 13.3 °F 7.6 °F 1022.9 in Calm     68 % 0.0 in 243.0 W/m2 CLR
13:46 13.3 °F 7.6 °F 1022.9 in Calm     68 % 0.0 in 265.0 W/m2 CLR
13:47 13.3 °F 7.8 °F 1022.9 in Calm     69 % 0.0 in 250.0 W/m2 CLR
13:52 13.3 °F 7.6 °F 1022.9 in NE 5.6 mph 5.6 mph 68 % 0.0 in 234.0 W/m2 CLR
13:56 13.3 °F 7.6 °F 1022.6 in Calm     68 % 0.0 in 218.0 W/m2 CLR
13:58 13.3 °F 7.6 °F 1022.6 in Calm     68 % 0.0 in 227.0 W/m2 CLR
14:02 13.3 °F 7.3 °F 1022.6 in Calm     67 % 0.0 in 225.0 W/m2 CLR
14:07 13.3 °F 7.6 °F 1022.6 in ENE 5.6 mph 5.6 mph 68 % 0.0 in 234.0 W/m2 CLR
14:08 13.3 °F 7.6 °F 1022.6 in East 5.6 mph 5.6 mph 68 % 0.0 in 229.0 W/m2 CLR
14:13 13.3 °F 7.8 °F 1022.6 in Calm     69 % 0.0 in 223.0 W/m2 CLR
14:14 13.3 °F 7.6 °F 1022.6 in Calm     68 % 0.0 in 218.0 W/m2 CLR
14:19 13.3 °F 7.6 °F 1022.6 in ENE 3.7 mph 3.7 mph 68 % 0.0 in 206.0 W/m2 CLR
14:24 13.3 °F 7.6 °F 1022.2 in Calm     68 % 0.0 in 209.0 W/m2 CLR
14:25 13.3 °F 7.6 °F 1022.2 in Calm     68 % 0.0 in 202.0 W/m2 CLR
14:30 12.8 °F 7.2 °F 1022.6 in Calm     69 % 0.0 in 192.0 W/m2 CLR
14:32 12.8 °F 7.2 °F 1022.6 in Calm     69 % 0.0 in 190.0 W/m2 CLR
14:37 12.8 °F 7.2 °F 1022.2 in East 1.6 mph   69 % 0.0 in 172.0 W/m2 CLR
14:38 12.8 °F 7.4 °F 1022.2 in East 5.6 mph 5.6 mph 70 % 0.0 in 169.0 W/m2 CLR
14:43 12.8 °F 7.4 °F 1022.2 in Calm     70 % 0.0 in 158.0 W/m2 CLR
14:44 12.8 °F 7.4 °F 1022.2 in Calm     70 % 0.0 in 158.0 W/m2 CLR
14:45 12.8 °F 7.4 °F 1022.2 in Calm     70 % 0.0 in 158.0 W/m2 CLR
14:50 12.8 °F 7.4 °F 1022.2 in Calm     70 % 0.0 in 156.0 W/m2 CLR
14:52 12.8 °F 7.4 °F 1022.2 in Calm     70 % 0.0 in 156.0 W/m2 CLR
14:54 12.8 °F 7.7 °F 1021.9 in Calm     71 % 0.0 in 156.0 W/m2 CLR
14:59 12.8 °F 7.7 °F 1021.9 in Calm     71 % 0.0 in 151.0 W/m2 CLR
15:03 12.8 °F 7.7 °F 1021.9 in Calm     71 % 0.0 in 134.0 W/m2 CLR
15:06 12.8 °F 7.7 °F 1021.9 in Calm     71 % 0.0 in 127.0 W/m2 CLR
15:09 12.8 °F 7.7 °F 1021.9 in Calm     71 % 0.0 in 111.0 W/m2 CLR
15:11 12.8 °F 7.7 °F 1021.9 in Calm     71 % 0.0 in 102.0 W/m2 CLR
15:16 12.8 °F 7.7 °F 1021.9 in Calm     71 % 0.0 in 90.0 W/m2 CLR
15:18 12.8 °F 7.7 °F 1021.9 in Calm     71 % 0.0 in 84.0 W/m2 CLR
15:19 12.8 °F 7.7 °F 1021.9 in Calm     71 % 0.0 in 83.0 W/m2 CLR
15:24 12.8 °F 7.7 °F 1021.9 in Calm     71 % 0.0 in 77.0 W/m2 CLR
15:29 12.8 °F 7.7 °F 1021.9 in Calm     71 % 0.0 in 79.0 W/m2 FEW
15:30 12.8 °F 7.7 °F 1021.9 in Calm     71 % 0.0 in 81.0 W/m2 FEW
15:34 12.2 °F 7.1 °F 1021.9 in Calm     71 % 0.0 in 81.0 W/m2 FEW
15:35 12.2 °F 7.1 °F 1021.9 in Calm     71 % 0.0 in 81.0 W/m2 FEW
15:40 12.2 °F 6.9 °F 1021.9 in Calm     70 % 0.0 in 81.0 W/m2 FEW
15:45 12.2 °F 6.9 °F 1021.9 in Calm     70 % 0.0 in 77.0 W/m2 FEW
15:46 12.2 °F 6.9 °F 1021.9 in Calm     70 % 0.0 in 77.0 W/m2 FEW
15:48 12.2 °F 6.9 °F 1021.9 in Calm     70 % 0.0 in 79.0 W/m2 FEW
15:52 12.2 °F 7.1 °F 1021.6 in Calm     71 % 0.0 in 84.0 W/m2 FEW
15:57 12.2 °F 7.1 °F 1021.6 in Calm     71 % 0.0 in 90.0 W/m2 FEW
15:58 12.2 °F 7.1 °F 1021.6 in Calm     71 % 0.0 in 90.0 W/m2 FEW
16:02 12.2 °F 7.1 °F 1021.9 in Calm     71 % 0.0 in 93.0 W/m2 CLR
16:07 12.2 °F 7.1 °F 1021.9 in Calm     71 % 0.0 in 93.0 W/m2 CLR
16:09 12.2 °F 7.1 °F 1021.6 in Calm     71 % 0.0 in 93.0 W/m2 CLR
16:14 12.2 °F 7.1 °F 1021.9 in Calm     71 % 0.0 in 95.0 W/m2 CLR
16:15 12.2 °F 7.1 °F 1021.9 in Calm     71 % 0.0 in 91.0 W/m2 CLR
16:19 12.2 °F 7.3 °F 1021.6 in Calm     72 % 0.0 in 95.0 W/m2 CLR
16:20 12.2 °F 7.3 °F 1021.6 in Calm     72 % 0.0 in 107.0 W/m2 CLR
16:25 11.7 °F 6.6 °F 1021.9 in Calm     71 % 0.0 in 86.0 W/m2 CLR
16:27 11.7 °F 6.6 °F 1021.9 in Calm     71 % 0.0 in 83.0 W/m2 CLR
16:32 11.7 °F 6.6 °F 1021.9 in Calm     71 % 0.0 in 88.0 W/m2 CLR
16:37 11.7 °F 6.8 °F 1021.9 in Calm     72 % 0.0 in 84.0 W/m2 CLR
16:38 11.7 °F 6.8 °F 1021.9 in Calm     72 % 0.0 in 83.0 W/m2 CLR
16:43 11.7 °F 6.8 °F 1021.9 in Calm     72 % 0.0 in 76.0 W/m2 FEW
16:45 11.7 °F 6.6 °F 1021.9 in Calm     71 % 0.0 in 76.0 W/m2 FEW
16:50 11.7 °F 6.8 °F 1021.9 in Calm     72 % 0.0 in 90.0 W/m2 CLR
16:51 11.7 °F 6.8 °F 1021.9 in Calm     72 % 0.0 in 86.0 W/m2 CLR
16:55 11.7 °F 6.6 °F 1021.9 in Calm     71 % 0.0 in 54.0 W/m2 SCT
16:57 11.7 °F 6.6 °F 1021.9 in Calm     71 % 0.0 in 49.0 W/m2 SCT
17:02 11.1 °F 5.8 °F 1021.9 in Calm     70 % 0.0 in 37.0 W/m2 BKN
17:03 11.1 °F 5.8 °F 1021.9 in Calm     70 % 0.0 in 30.0 W/m2 BKN
17:09 11.1 °F 6.1 °F 1021.9 in Calm     71 % 0.0 in 26.0 W/m2 BKN
17:14 10.6 °F 5.5 °F 1021.9 in Calm     71 % 0.0 in 26.0 W/m2 BKN
17:17 10.6 °F 5.5 °F 1021.9 in Calm     71 % 0.0 in 25.0 W/m2 BKN
17:22 10.6 °F 5.7 °F 1021.9 in Calm     72 % 0.0 in 23.0 W/m2 BKN
17:26 10.0 °F 5.4 °F 1021.9 in Calm     73 % 0.0 in 21.0 W/m2 BKN
17:27 10.0 °F 5.4 °F 1021.9 in Calm     73 % 0.0 in 19.0 W/m2 BKN
17:31 9.4 °F 4.7 °F 1021.9 in Calm     72 % 0.0 in 14.0 W/m2 BKN
17:32 9.4 °F 4.7 °F 1021.9 in Calm     72 % 0.0 in 14.0 W/m2 BKN
17:36 9.4 °F 4.4 °F 1021.6 in Calm     71 % 0.0 in 7.0 W/m2 BKN
17:38 8.9 °F 3.9 °F 1021.9 in Calm     71 % 0.0 in 5.0 W/m2 OVC
17:41 8.9 °F 3.7 °F 1021.6 in Calm     70 % 0.0 in 5.0 W/m2 OVC
17:44 8.9 °F 3.7 °F 1021.6 in Calm     70 % 0.0 in 0.0 W/m2 OVC
17:46 8.9 °F 3.7 °F 1021.9 in Calm     70 % 0.0 in 0.0 W/m2 OVC
17:50 8.9 °F 3.7 °F 1021.9 in Calm     70 % 0.0 in 0.0 W/m2 OVC
17:55 8.3 °F 3.2 °F 1021.9 in Calm     70 % 0.0 in 0.0 W/m2 CLR
18:00 8.3 °F 3.2 °F 1021.9 in Calm     70 % 0.0 in 0.0 W/m2 CLR
18:01 8.3 °F 3.4 °F 1021.9 in Calm     71 % 0.0 in 0.0 W/m2 CLR
18:06 8.3 °F 3.0 °F 1021.9 in Calm     69 % 0.0 in 0.0 W/m2 CLR
18:11 8.3 °F 3.2 °F 1022.2 in Calm     70 % 0.0 in 0.0 W/m2 CLR
18:14 8.3 °F 3.2 °F 1022.2 in Calm     70 % 0.0 in 0.0 W/m2 CLR
18:18 8.3 °F 3.0 °F 1022.2 in Calm     69 % 0.0 in 0.0 W/m2 CLR
18:20 8.3 °F 3.0 °F 1022.2 in Calm     69 % 0.0 in 0.0 W/m2 CLR
18:24 7.8 °F 2.4 °F 1022.2 in NNW 3.7 mph 3.7 mph 69 % 0.0 in 0.0 W/m2 CLR
18:27 7.8 °F 2.4 °F 1022.2 in NNW 3.7 mph 3.7 mph 69 % 0.0 in 0.0 W/m2 CLR
18:31 7.2 °F 1.9 °F 1021.9 in NNW 6.4 mph 6.4 mph 69 % 0.0 in 0.0 W/m2 CLR
18:36 6.7 °F 1.2 °F 1021.9 in NNW 5.6 mph 5.6 mph 68 % 0.0 in 0.0 W/m2 CLR
18:40 6.7 °F 1.2 °F 1021.9 in NNW 11.3 mph 11.3 mph 68 % 0.0 in 0.0 W/m2 CLR
18:41 6.7 °F 1.2 °F 1021.9 in NNW 11.1 mph 11.1 mph 68 % 0.0 in 0.0 W/m2 CLR
18:46 6.7 °F 0.3 °F 1021.9 in NNW 18.5 mph 18.5 mph 64 % 0.0 in 0.0 W/m2 CLR
18:47 7.2 °F 0.8 °F 1021.9 in NW 18.5 mph 18.5 mph 64 % 0.0 in 0.0 W/m2 CLR
18:52 7.8 °F 0.9 °F 1021.9 in NW 16.7 mph 16.7 mph 62 % 0.0 in 0.0 W/m2 CLR
18:54 8.3 °F 1.2 °F 1021.9 in NNW 11.1 mph 11.1 mph 61 % 0.0 in 0.0 W/m2 CLR
19:00 8.3 °F 1.0 °F 1022.2 in NNW 7.4 mph 7.4 mph 60 % 0.0 in 0.0 W/m2 CLR
19:01 8.9 °F 1.6 °F 1022.2 in NNW 7.4 mph 7.4 mph 60 % 0.0 in 0.0 W/m2 CLR
19:05 8.9 °F 1.6 °F 1021.9 in NW 5.6 mph 5.6 mph 60 % 0.0 in 0.0 W/m2 CLR
19:10 8.3 °F 1.2 °F 1021.9 in Calm     61 % 0.0 in 0.0 W/m2 CLR
19:13 8.3 °F 1.2 °F 1021.9 in Calm     61 % 0.0 in 0.0 W/m2 CLR
19:18 7.8 °F 0.7 °F 1021.9 in Calm     61 % 0.0 in 0.0 W/m2 CLR
19:20 7.8 °F 0.7 °F 1021.9 in Calm     61 % 0.0 in 0.0 W/m2 CLR
19:23 7.8 °F 0.7 °F 1021.9 in Calm     61 % 0.0 in 0.0 W/m2 CLR
19:26 7.2 °F 0.2 °F 1021.9 in Calm     61 % 0.0 in 0.0 W/m2 CLR
19:28 7.2 °F 0.2 °F 1021.9 in Calm     61 % 0.0 in 0.0 W/m2 CLR
19:33 7.2 °F 0.4 °F 1022.2 in Calm     62 % 0.0 in 0.0 W/m2 CLR
19:35 7.2 °F 0.4 °F 1022.2 in Calm     62 % 0.0 in 0.0 W/m2 CLR
19:40 7.2 °F 0.4 °F 1022.2 in NW 3.7 mph 3.7 mph 62 % 0.0 in 0.0 W/m2 CLR
19:41 7.2 °F 0.7 °F 1022.2 in NW 5.6 mph 5.6 mph 63 % 0.0 in 0.0 W/m2 CLR
19:46 7.2 °F 0.4 °F 1022.2 in NW 3.7 mph 3.7 mph 62 % 0.0 in 0.0 W/m2 CLR
19:47 7.8 °F 0.9 °F 1022.2 in NW 3.7 mph 3.7 mph 62 % 0.0 in 0.0 W/m2 CLR
19:52 7.8 °F 0.9 °F 1022.2 in NW 5.6 mph 5.6 mph 62 % 0.0 in 0.0 W/m2 CLR
19:53 7.8 °F 0.9 °F 1022.2 in NW 5.6 mph 5.6 mph 62 % 0.0 in 0.0 W/m2 CLR
19:58 7.8 °F 0.7 °F 1022.6 in NW 5.6 mph 5.6 mph 61 % 0.0 in 0.0 W/m2 CLR
19:59 7.8 °F 0.7 °F 1022.6 in NW 5.6 mph 5.6 mph 61 % 0.0 in 0.0 W/m2 CLR
20:04 7.8 °F 0.7 °F 1022.9 in NW 5.6 mph 5.6 mph 61 % 0.0 in 0.0 W/m2 CLR
20:06 8.3 °F 1.4 °F 1022.9 in NNW 5.6 mph 5.6 mph 62 % 0.0 in 0.0 W/m2 CLR
20:10 8.3 °F 1.2 °F 1022.9 in NNW 9.3 mph 9.3 mph 61 % 0.0 in 0.0 W/m2 CLR
20:11 8.3 °F 1.2 °F 1022.9 in NW 7.4 mph 7.4 mph 61 % 0.0 in 0.0 W/m2 CLR
20:16 8.9 °F 1.8 °F 1022.9 in NW 14.8 mph 14.8 mph 61 % 0.0 in 0.0 W/m2 CLR
20:17 8.9 °F 1.8 °F 1022.9 in NNW 11.1 mph 11.1 mph 61 % 0.0 in 0.0 W/m2 CLR
20:18 8.9 °F 1.8 °F 1022.9 in NW 18.5 mph 18.5 mph 61 % 0.0 in 0.0 W/m2 CLR
20:23 9.4 °F 2.1 °F 1022.9 in NW 14.8 mph 14.8 mph 60 % 0.0 in 0.0 W/m2 CLR
20:26 10.0 °F 2.6 °F 1022.9 in NW 13.0 mph 13.0 mph 60 % 0.0 in 0.0 W/m2 CLR
20:31 10.6 °F 3.1 °F 1022.9 in NW 12.9 mph 12.9 mph 60 % 0.0 in 0.0 W/m2 CLR
20:32 11.1 °F 3.4 °F 1022.9 in NW 14.8 mph 14.8 mph 59 % 0.0 in 0.0 W/m2 CLR
20:36 11.1 °F 3.6 °F 1022.6 in NW 24.1 mph 24.1 mph 60 % 0.0 in 0.0 W/m2 CLR
20:38 11.7 °F 4.2 °F 1022.6 in WNW 18.5 mph 18.5 mph 60 % 0.0 in 0.0 W/m2 CLR
20:42 12.2 °F 4.4 °F 1022.6 in WNW 22.5 mph 22.5 mph 59 % 0.0 in 0.0 W/m2 CLR
20:47 12.8 °F 4.9 °F 1022.6 in WNW 18.5 mph 18.5 mph 59 % 0.0 in 0.0 W/m2 CLR
20:49 12.8 °F 4.9 °F 1022.6 in West 18.5 mph 18.5 mph 59 % 0.0 in 0.0 W/m2 CLR
20:54 12.8 °F 4.9 °F 1022.6 in NW 22.2 mph 22.2 mph 59 % 0.0 in 0.0 W/m2 CLR
20:59 12.8 °F 5.2 °F 1023.2 in NNW 31.5 mph 31.5 mph 60 % 0.0 in 0.0 W/m2 CLR
21:00 12.2 °F 4.7 °F 1023.2 in WNW 31.5 mph 31.5 mph 60 % 0.0 in 0.0 W/m2 CLR
21:05 13.3 °F 5.7 °F 1023.6 in NW 31.5 mph 31.5 mph 60 % 0.0 in 0.0 W/m2 CLR
21:06 13.3 °F 5.7 °F 1023.6 in WNW 31.5 mph 31.5 mph 60 % 0.0 in 0.0 W/m2 CLR
21:11 13.3 °F 5.7 °F 1023.9 in NNW 37.0 mph 37.0 mph 60 % 0.0 in 0.0 W/m2 CLR
21:15 13.3 °F 5.7 °F 1023.9 in NNW 33.8 mph 33.8 mph 60 % 0.0 in 0.0 W/m2 CLR
21:20 13.3 °F 5.5 °F 1024.3 in NW 55.5 mph 55.5 mph 59 % 0.0 in 0.0 W/m2
21:21 13.3 °F 5.5 °F 1024.3 in NW 55.5 mph 55.5 mph 59 % 0.0 in 0.0 W/m2
21:23 13.3 °F 5.5 °F 1024.3 in NW 48.1 mph 48.1 mph 59 % 0.0 in 0.0 W/m2 CLR
21:26 12.8 °F 4.9 °F 1024.6 in North 53.1 mph 53.1 mph 59 % 0.0 in 0.0 W/m2 CLR
21:31 12.8 °F 4.9 °F 1024.9 in NW 44.4 mph 44.4 mph 59 % 0.0 in 0.0 W/m2 CLR
21:36 12.8 °F 5.7 °F 1024.9 in NW 62.9 mph 62.9 mph 62 % 0.0 in 0.0 W/m2
21:37 12.2 °F 5.4 °F 1024.9 in North 68.5 mph 68.5 mph 63 % 0.0 in 0.0 W/m2
21:45 11.7 °F 5.7 °F 1025.6 in NW 55.5 mph 55.5 mph 67 % 0.0 in 0.0 W/m2 CLR
21:50 11.1 °F 5.8 °F 1025.6 in North 53.1 mph 53.1 mph 70 % 0.0 in 0.0 W/m2
21:51 11.1 °F 5.8 °F 1025.6 in NNW 53.7 mph 53.7 mph 70 % 0.0 in 0.0 W/m2
21:56 10.6 °F 5.5 °F 1026.0 in North 50.0 mph 50.0 mph 71 % 0.0 in 0.0 W/m2 CLR
21:58 10.6 °F 5.5 °F 1026.3 in NNW 46.3 mph 46.3 mph 71 % 0.0 in 0.0 W/m2 CLR
22:02 10.6 °F 5.3 °F 1026.3 in NNW 57.4 mph 57.4 mph 70 % 0.0 in 0.0 W/m2
22:03 10.6 °F 5.3 °F 1026.3 in North 61.1 mph 61.1 mph 70 % 0.0 in 0.0 W/m2
22:08 10.6 °F 5.5 °F 1026.3 in NNW 42.6 mph 42.6 mph 71 % 0.0 in 0.0 W/m2
22:11 10.0 °F 5.0 °F 1026.6 in NNW 53.7 mph 53.7 mph 71 % 0.0 in 0.0 W/m2 CLR
22:14 10.0 °F 5.0 °F 1026.3 in North 50.0 mph 50.0 mph 71 % 0.0 in 0.0 W/m2 CLR
22:17 10.0 °F 5.0 °F 1026.6 in NNW 40.7 mph 40.7 mph 71 % 0.0 in 0.0 W/m2 CLR
22:20 10.0 °F 5.0 °F 1026.6 in North 57.4 mph 57.4 mph 71 % 0.0 in 0.0 W/m2 CLR
22:24 10.0 °F 5.2 °F 1026.6 in North 46.3 mph 46.3 mph 72 % 0.0 in 0.0 W/m2 CLR
22:25 10.0 °F 5.2 °F 1026.6 in North 46.7 mph 46.7 mph 72 % 0.0 in 0.0 W/m2 CLR
22:30 10.0 °F 5.0 °F 1026.6 in NNW 40.7 mph 40.7 mph 71 % 0.0 in 0.0 W/m2 CLR
22:33 10.0 °F 5.2 °F 1026.6 in NNW 48.1 mph 48.1 mph 72 % 0.0 in 0.0 W/m2 CLR
22:36 10.0 °F 5.2 °F 1026.6 in NW 42.6 mph 42.6 mph 72 % 0.0 in 0.0 W/m2 CLR
22:41 10.0 °F 5.2 °F 1027.0 in NW 27.8 mph 27.8 mph 72 % 0.0 in 0.0 W/m2 CLR
22:43 10.0 °F 5.2 °F 1027.0 in NNW 33.8 mph 33.8 mph 72 % 0.0 in 0.0 W/m2 CLR
22:48 10.0 °F 5.2 °F 1027.0 in NW 45.1 mph 45.1 mph 72 % 0.0 in 0.0 W/m2 CLR
22:52 9.4 °F 4.4 °F 1027.0 in NW 38.9 mph 38.9 mph 71 % 0.0 in 0.0 W/m2 CLR
22:54 9.4 °F 4.4 °F 1027.3 in North 33.3 mph 33.3 mph 71 % 0.0 in 0.0 W/m2 CLR
22:58 9.4 °F 4.4 °F 1027.3 in NNE 31.5 mph 31.5 mph 71 % 0.0 in 0.0 W/m2 CLR
23:03 9.4 °F 4.4 °F 1027.3 in NNW 42.6 mph 42.6 mph 71 % 0.0 in 0.0 W/m2 CLR
23:04 9.4 °F 4.4 °F 1027.3 in NW 42.6 mph 42.6 mph 71 % 0.0 in 0.0 W/m2 CLR
23:07 9.4 °F 4.4 °F 1027.3 in North 33.3 mph 33.3 mph 71 % 0.0 in 0.0 W/m2 CLR
23:09 9.4 °F 4.4 °F 1027.3 in NNW 27.8 mph 27.8 mph 71 % 0.0 in 0.0 W/m2 CLR
23:13 9.4 °F 4.4 °F 1027.7 in NW 33.3 mph 33.3 mph 71 % 0.0 in 0.0 W/m2 CLR
23:15 9.4 °F 4.4 °F 1027.7 in NNW 33.3 mph 33.3 mph 71 % 0.0 in 0.0 W/m2 CLR
23:19 9.4 °F 4.4 °F 1027.7 in North 32.2 mph 32.2 mph 71 % 0.0 in 0.0 W/m2 CLR
23:21 9.4 °F 4.4 °F 1027.7 in North 42.6 mph 42.6 mph 71 % 0.0 in 0.0 W/m2 CLR
23:26 9.4 °F 4.4 °F 1027.7 in North 22.5 mph 22.5 mph 71 % 0.0 in 0.0 W/m2 CLR
23:29 9.4 °F 4.4 °F 1027.7 in NNW 38.9 mph 38.9 mph 71 % 0.0 in 0.0 W/m2 CLR
23:31 9.4 °F 4.4 °F 1027.7 in NW 38.9 mph 38.9 mph 71 % 0.0 in 0.0 W/m2 CLR
23:36 8.9 °F 3.9 °F 1027.7 in NNW 31.5 mph 31.5 mph 71 % 0.0 in 0.0 W/m2 CLR
23:41 8.9 °F 4.1 °F 1027.7 in NW 33.3 mph 33.3 mph 72 % 0.0 in 0.0 W/m2 CLR
23:44 8.9 °F 4.1 °F 1027.7 in NW 37.0 mph 37.0 mph 72 % 0.0 in 0.0 W/m2 CLR
23:46 8.9 °F 4.1 °F 1028.0 in NW 29.6 mph 29.6 mph 72 % 0.0 in 0.0 W/m2 CLR
23:51 8.9 °F 4.1 °F 1028.0 in NNW 38.9 mph 38.9 mph 72 % 0.0 in 0.0 W/m2 CLR
23:52 8.3 °F 3.6 °F 1028.0 in NNW 38.9 mph 38.9 mph 72 % 0.0 in 0.0 W/m2 CLR
23:53 8.3 °F 3.6 °F 1028.0 in NNW 40.7 mph 40.7 mph 72 % 0.0 in 0.0 W/m2 CLR
23:58 8.3 °F 3.6 °F 1028.0 in NW 31.5 mph 31.5 mph 72 % 0.0 in 0.0 W/m2 CLR
23:59 8.3 °F 3.6 °F 1028.0 in NW 33.8 mph 33.8 mph 72 % 0.0 in 0.0 W/m2 CLR
Lo Temps de Massalio
Compliments of Weather Underground - 1.75 mb